Time;durP1;ratioP1;P1;durP2;ratioP2;P2;SDS_P1;SDS_P2;PMS_P1;PMS_P2;Temp;Humidity;BMP_temperature;BMP_pressure;BME280_temperature;BME280_humidity;BME280_pressure;Samples;Min_cycle;Max_cycle;Signal;HPM_P1;HPM_P2
2023/04/21 00:02:38;;;;;;;5.60;5.10;;;22.40;72.30;;;;;;6253946;28;89075;-70
2023/04/21 00:05:41;;;;;;;5.95;5.45;;;22.40;72.40;;;;;;6254500;28;87921;-69
2023/04/21 00:08:43;;;;;;;6.15;5.55;;;22.40;72.50;;;;;;6254440;28;89137;-69
2023/04/21 00:11:45;;;;;;;5.70;5.20;;;22.40;72.40;;;;;;6255651;28;88287;-69
2023/04/21 00:14:49;;;;;;;5.80;5.30;;;22.40;72.50;;;;;;6242628;28;89098;-69
2023/04/21 00:17:51;;;;;;;5.70;5.20;;;22.30;72.30;;;;;;6253108;28;88067;-69
2023/04/21 00:20:53;;;;;;;5.28;4.88;;;22.40;72.50;;;;;;6251198;28;90466;-70
2023/04/21 00:23:55;;;;;;;5.80;5.30;;;22.30;72.50;;;;;;6252042;28;90730;-69
2023/04/21 00:26:57;;;;;;;5.75;5.25;;;22.40;72.50;;;;;;6253476;28;88166;-70
2023/04/21 00:30:00;;;;;;;6.35;5.75;;;22.40;72.50;;;;;;6239570;27;89079;-69
2023/04/21 00:33:02;;;;;;;5.85;5.35;;;22.30;72.50;;;;;;6255568;28;89149;-70
2023/04/21 00:36:05;;;;;;;5.50;5.10;;;22.30;72.40;;;;;;6258429;27;89108;-70
2023/04/21 00:39:08;;;;;;;5.90;5.40;;;22.30;72.30;;;;;;6257685;28;89066;-69
2023/04/21 00:42:10;;;;;;;5.63;5.13;;;22.40;72.40;;;;;;6256451;28;88363;-69
2023/04/21 00:45:14;;;;;;;6.15;5.65;;;22.40;72.40;;;;;;6254396;28;88990;-69
2023/04/21 00:48:16;;;;;;;6.70;6.10;;;22.40;72.40;;;;;;6249260;28;89010;-69
2023/04/21 00:51:19;;;;;;;6.15;5.65;;;22.30;72.40;;;;;;6257490;28;90064;-69
2023/04/21 00:54:23;;;;;;;6.15;5.65;;;22.30;72.40;;;;;;6257432;28;89287;-69
2023/04/21 00:57:27;;;;;;;6.22;5.63;;;22.30;72.50;;;;;;6257706;28;89048;-70
2023/04/21 01:00:30;;;;;;;6.35;5.75;;;22.30;72.50;;;;;;6243694;28;89309;-69
2023/04/21 01:03:32;;;;;;;6.43;5.82;;;22.30;72.40;;;;;;6237051;28;88977;-69
2023/04/21 01:06:35;;;;;;;7.10;6.40;;;22.30;72.40;;;;;;6253407;28;89210;-69
2023/04/21 01:09:37;;;;;;;6.63;6.03;;;22.30;72.50;;;;;;6254083;28;89003;-69
2023/04/21 01:12:46;;;;;;;6.82;6.22;;;22.30;72.50;;;;;;6258498;28;88381;-69
2023/04/21 01:15:49;;;;;;;7.30;6.60;;;22.30;72.50;;;;;;6252841;27;89031;-69
2023/04/21 01:18:52;;;;;;;6.82;6.22;;;22.20;72.50;;;;;;6251731;28;88976;-70
2023/04/21 01:21:56;;;;;;;6.68;6.07;;;22.30;72.60;;;;;;6250684;28;90257;-70
2023/04/21 01:24:58;;;;;;;6.80;6.20;;;22.20;72.50;;;;;;6257498;28;89319;-70
2023/04/21 01:28:00;;;;;;;6.95;6.32;;;22.20;72.50;;;;;;6257326;28;89161;-70
2023/04/21 01:31:02;;;;;;;7.53;6.88;;;22.20;72.50;;;;;;6257212;28;89108;-69
2023/04/21 01:34:05;;;;;;;7.68;6.97;;;22.20;72.50;;;;;;6244445;28;87783;-70
2023/04/21 01:37:09;;;;;;;7.30;6.60;;;22.20;72.40;;;;;;6256069;28;89087;-69
2023/04/21 01:40:12;;;;;;;7.30;6.60;;;22.30;72.40;;;;;;6249100;28;89105;-69
2023/04/21 01:43:15;;;;;;;8.05;7.35;;;22.30;72.50;;;;;;6252853;28;88384;-70
2023/04/21 01:46:20;;;;;;;7.15;6.50;;;22.20;72.40;;;;;;6256345;28;89363;-70
2023/04/21 01:49:22;;;;;;;7.95;7.25;;;22.20;72.40;;;;;;6253101;28;89312;-69
2023/04/21 01:52:25;;;;;;;8.10;7.40;;;22.20;72.50;;;;;;6252877;28;89914;-70
2023/04/21 01:55:28;;;;;;;7.65;6.95;;;22.20;72.50;;;;;;6256476;28;89385;-70
2023/04/21 01:58:30;;;;;;;8.02;7.32;;;22.20;72.50;;;;;;6252841;28;89104;-70
2023/04/21 02:01:32;;;;;;;8.43;7.63;;;22.20;72.50;;;;;;6251518;28;89412;-69
2023/04/21 02:04:34;;;;;;;8.13;7.32;;;22.20;72.50;;;;;;6256277;28;89231;-70
2023/04/21 02:07:37;;;;;;;8.20;7.50;;;22.10;72.40;;;;;;6246777;28;89133;-70
2023/04/21 02:10:39;;;;;;;8.75;7.95;;;22.10;72.50;;;;;;6250374;28;89131;-70
2023/04/21 02:13:41;;;;;;;8.07;7.38;;;22.20;72.50;;;;;;6254516;28;88416;-70
2023/04/21 02:16:43;;;;;;;8.50;7.70;;;22.20;72.50;;;;;;6250614;28;88828;-71
2023/04/21 02:19:46;;;;;;;8.60;7.80;;;22.20;72.50;;;;;;6244902;28;89040;-71
2023/04/21 02:22:50;;;;;;;8.63;7.85;;;22.10;72.50;;;;;;6254039;28;90049;-70
2023/04/21 02:25:51;;;;;;;8.48;7.68;;;22.10;72.50;;;;;;6253363;28;89059;-71
2023/04/21 02:28:53;;;;;;;8.45;7.65;;;22.20;72.60;;;;;;6253832;28;89317;-70
2023/04/21 02:31:56;;;;;;;8.52;7.72;;;22.20;72.50;;;;;;6254823;28;89073;-70
2023/04/21 02:34:58;;;;;;;8.65;7.85;;;22.10;72.40;;;;;;6252708;28;89150;-71
2023/04/21 02:38:06;;;;;;;8.70;7.90;;;22.10;72.50;;;;;;6238329;28;89090;-70
2023/04/21 02:41:08;;;;;;;8.43;7.65;;;22.20;72.50;;;;;;6240840;28;89006;-70
2023/04/21 02:44:10;;;;;;;8.43;7.72;;;22.10;72.50;;;;;;6254162;28;88324;-70
2023/04/21 02:47:12;;;;;;;8.57;7.85;;;22.10;72.50;;;;;;6253643;28;89080;-71
2023/04/21 02:50:14;;;;;;;8.75;7.95;;;22.10;72.50;;;;;;6254138;28;89077;-71
2023/04/21 02:53:17;;;;;;;8.20;7.50;;;22.10;72.50;;;;;;6244579;28;89928;-70
2023/04/21 02:56:19;;;;;;;8.93;8.13;;;22.10;72.50;;;;;;6246516;28;89468;-70
2023/04/21 02:59:21;;;;;;;8.55;7.75;;;22.10;72.60;;;;;;6242056;28;89087;-70
2023/04/21 03:02:23;;;;;;;8.68;7.88;;;22.10;72.60;;;;;;6245461;28;89098;-70
2023/04/21 03:05:25;;;;;;;9.05;8.15;;;22.10;72.50;;;;;;6253708;28;88146;-70
2023/04/21 03:08:29;;;;;;;8.45;7.65;;;22.10;72.60;;;;;;6252120;28;89069;-70
2023/04/21 03:11:31;;;;;;;9.35;8.45;;;22.10;72.50;;;;;;6246657;28;89083;-70
2023/04/21 03:14:33;;;;;;;8.93;8.13;;;22.10;72.60;;;;;;6250805;28;88302;-69
2023/04/21 03:17:35;;;;;;;8.45;7.65;;;22.00;72.50;;;;;;6246726;28;89139;-70
2023/04/21 03:20:37;;;;;;;9.15;8.35;;;22.10;72.70;;;;;;6254437;28;89359;-70
2023/04/21 03:23:40;;;;;;;8.23;7.53;;;22.00;72.50;;;;;;6255088;27;90033;-69
2023/04/21 03:26:42;;;;;;;8.57;7.78;;;22.10;72.50;;;;;;6251992;28;89461;-70
2023/04/21 03:29:44;;;;;;;8.23;7.53;;;22.00;72.50;;;;;;6252802;28;89371;-69
2023/04/21 03:32:46;;;;;;;8.32;7.55;;;22.00;72.40;;;;;;6248415;28;88957;-70
2023/04/21 03:35:48;;;;;;;7.95;7.25;;;22.10;72.30;;;;;;6253834;28;89296;-69
2023/04/21 03:38:52;;;;;;;8.50;7.80;;;22.00;72.30;;;;;;6255466;28;89051;-69
2023/04/21 03:41:53;;;;;;;8.30;7.60;;;22.10;72.30;;;;;;6255426;28;89033;-69
2023/04/21 03:44:56;;;;;;;8.18;7.47;;;22.10;72.30;;;;;;6254136;28;88312;-69
2023/04/21 03:47:58;;;;;;;7.85;7.15;;;22.10;72.20;;;;;;6254688;28;89078;-69
2023/04/21 03:51:00;;;;;;;8.30;7.57;;;22.10;72.20;;;;;;6244895;28;89466;-69
2023/04/21 03:54:03;;;;;;;7.93;7.22;;;22.10;72.20;;;;;;6252205;28;89951;-69
2023/04/21 03:57:05;;;;;;;7.60;6.90;;;22.10;72.20;;;;;;6254229;28;89021;-70
2023/04/21 04:00:09;;;;;;;7.47;6.78;;;22.10;72.20;;;;;;6255199;28;89045;-69
2023/04/21 04:03:11;;;;;;;7.88;7.18;;;22.10;72.10;;;;;;6241414;27;89366;-69
2023/04/21 04:06:13;;;;;;;7.72;7.03;;;22.10;72.10;;;;;;6258864;28;89305;-70
2023/04/21 04:09:17;;;;;;;7.43;6.82;;;22.10;72.10;;;;;;6247309;28;88338;-70
2023/04/21 04:12:19;;;;;;;7.00;6.40;;;22.10;72.00;;;;;;6245163;28;88972;-70
2023/04/21 04:15:21;;;;;;;7.05;6.45;;;22.20;72.00;;;;;;6247978;28;88676;-69
2023/04/21 04:18:23;;;;;;;8.05;7.35;;;22.20;72.00;;;;;;6255448;28;88238;-70
2023/04/21 04:21:26;;;;;;;7.88;7.18;;;22.20;72.00;;;;;;6257579;28;89459;-70
2023/04/21 04:24:29;;;;;;;7.35;6.65;;;22.20;71.90;;;;;;6258210;28;90094;-70
2023/04/21 04:27:32;;;;;;;7.07;6.47;;;22.20;71.80;;;;;;6259009;28;88291;-70
2023/04/21 04:30:34;;;;;;;7.90;7.20;;;22.20;71.80;;;;;;6258497;28;90649;-69
2023/04/21 04:33:36;;;;;;;7.28;6.68;;;22.20;71.80;;;;;;6245158;28;87997;-70
2023/04/21 04:36:38;;;;;;;7.32;6.72;;;22.20;71.80;;;;;;6256870;28;89085;-70
2023/04/21 04:39:41;;;;;;;7.70;7.00;;;22.30;71.90;;;;;;6258364;28;88399;-70
2023/04/21 04:42:45;;;;;;;7.15;6.55;;;22.30;71.90;;;;;;6257729;28;89062;-70
2023/04/21 04:45:47;;;;;;;7.20;6.60;;;22.30;71.90;;;;;;6247840;28;87995;-70
2023/04/21 04:48:49;;;;;;;7.45;6.75;;;22.30;71.80;;;;;;6257411;28;89496;-70
2023/04/21 04:51:51;;;;;;;7.20;6.60;;;22.30;71.80;;;;;;6257247;28;88007;-70
2023/04/21 04:54:55;;;;;;;7.00;6.40;;;22.30;71.80;;;;;;6256654;28;89929;-70
2023/04/21 04:57:57;;;;;;;7.25;6.65;;;22.30;71.80;;;;;;6257219;28;89216;-70
2023/04/21 05:00:59;;;;;;;7.32;6.65;;;22.30;71.70;;;;;;6255102;28;87946;-69
2023/04/21 05:04:01;;;;;;;7.10;6.50;;;22.30;71.70;;;;;;6246978;28;88014;-70
2023/04/21 05:07:04;;;;;;;7.45;6.75;;;22.40;71.70;;;;;;6258549;28;89484;-70
2023/04/21 05:10:08;;;;;;;6.22;5.72;;;22.40;71.70;;;;;;6257457;28;89243;-70
2023/04/21 05:13:10;;;;;;;6.70;6.10;;;22.40;71.60;;;;;;6257524;28;89116;-69
2023/04/21 05:16:12;;;;;;;6.95;6.35;;;22.40;71.60;;;;;;6248252;28;87528;-69
2023/04/21 05:19:14;;;;;;;6.30;5.80;;;22.50;71.60;;;;;;6254760;28;89175;-70
2023/04/21 05:22:16;;;;;;;6.35;5.78;;;22.50;71.60;;;;;;6246608;28;89206;-70
2023/04/21 05:25:19;;;;;;;6.40;5.80;;;22.50;71.60;;;;;;6256407;28;90088;-70
2023/04/21 05:28:22;;;;;;;6.60;6.00;;;22.50;71.60;;;;;;6257086;27;89422;-69
2023/04/21 05:31:24;;;;;;;6.45;5.85;;;22.50;71.60;;;;;;6255793;28;89157;-70
2023/04/21 05:34:26;;;;;;;6.32;5.82;;;22.50;71.50;;;;;;6257099;28;89019;-71
2023/04/21 05:37:27;;;;;;;6.55;6.03;;;22.50;71.50;;;;;;6256576;28;89029;-70
2023/04/21 05:40:31;;;;;;;6.65;6.05;;;22.50;71.50;;;;;;6256399;28;89193;-70
2023/04/21 05:43:33;;;;;;;6.25;5.72;;;22.60;71.60;;;;;;6251074;28;89243;-70
2023/04/21 05:46:35;;;;;;;6.05;5.55;;;22.50;71.50;;;;;;6257667;28;88314;-70
2023/04/21 05:49:37;;;;;;;6.45;5.85;;;22.60;71.60;;;;;;6246670;28;89132;-70
2023/04/21 05:52:39;;;;;;;6.53;5.93;;;22.60;71.60;;;;;;6243030;27;89552;-70
2023/04/21 05:55:42;;;;;;;6.13;5.53;;;22.60;71.60;;;;;;6256883;28;89962;-70
2023/04/21 05:58:45;;;;;;;6.30;5.70;;;22.60;71.60;;;;;;6243379;28;89067;-70
2023/04/21 06:01:47;;;;;;;5.82;5.32;;;22.60;71.50;;;;;;6247873;28;89167;-69
2023/04/21 06:04:49;;;;;;;6.22;5.63;;;22.60;71.60;;;;;;6254003;28;89203;-70
2023/04/21 06:07:51;;;;;;;6.40;5.80;;;22.60;71.60;;;;;;6257059;28;89003;-70
2023/04/21 06:10:55;;;;;;;6.00;5.50;;;22.60;71.60;;;;;;6255076;28;88977;-70
2023/04/21 06:13:58;;;;;;;5.72;5.22;;;22.70;71.70;;;;;;6255929;28;87933;-69
2023/04/21 06:17:00;;;;;;;5.93;5.43;;;22.60;71.60;;;;;;6248234;28;88837;-69
2023/04/21 06:20:02;;;;;;;6.05;5.55;;;22.70;71.60;;;;;;6255826;28;89040;-71
2023/04/21 06:23:04;;;;;;;5.70;5.20;;;22.70;71.70;;;;;;6255878;28;89151;-69
2023/04/21 06:26:08;;;;;;;6.18;5.57;;;22.70;71.70;;;;;;6254978;28;89982;-70
2023/04/21 06:29:10;;;;;;;5.97;5.47;;;22.70;71.60;;;;;;6255630;28;89122;-69
2023/04/21 06:32:12;;;;;;;5.63;5.13;;;22.70;71.70;;;;;;6255530;28;89028;-70
2023/04/21 06:35:14;;;;;;;5.70;5.20;;;22.70;71.70;;;;;;6256425;28;88973;-70
2023/04/21 06:38:16;;;;;;;5.70;5.20;;;22.70;71.60;;;;;;6255324;28;88949;-69
2023/04/21 06:41:20;;;;;;;5.78;5.28;;;22.70;71.60;;;;;;6255238;28;89144;-69
2023/04/21 06:44:22;;;;;;;5.65;5.15;;;22.70;71.60;;;;;;6241196;28;88118;-69
2023/04/21 06:47:24;;;;;;;5.55;5.05;;;22.70;71.60;;;;;;6232766;28;86896;-70
2023/04/21 06:50:26;;;;;;;5.30;4.90;;;22.70;71.60;;;;;;6252736;28;89216;-70
2023/04/21 06:53:28;;;;;;;5.55;5.05;;;22.80;71.60;;;;;;6255744;28;89026;-70
2023/04/21 06:56:32;;;;;;;5.60;5.10;;;22.70;71.60;;;;;;6254116;28;90036;-70
2023/04/21 06:59:34;;;;;;;5.40;4.90;;;22.70;71.60;;;;;;6255278;28;89649;-69
2023/04/21 07:02:36;;;;;;;5.97;5.38;;;22.80;71.60;;;;;;6242711;28;89260;-69
2023/04/21 07:05:38;;;;;;;5.80;5.30;;;22.80;71.60;;;;;;6254776;28;89242;-70
2023/04/21 07:08:41;;;;;;;5.20;4.70;;;22.80;71.60;;;;;;6255800;28;89024;-69
2023/04/21 07:11:44;;;;;;;5.50;5.00;;;22.80;71.60;;;;;;6255405;28;89105;-69
2023/04/21 07:14:46;;;;;;;5.45;4.95;;;22.80;71.60;;;;;;6250167;28;88899;-69
2023/04/21 07:17:48;;;;;;;5.20;4.80;;;22.80;71.60;;;;;;6252906;28;87234;-69
2023/04/21 07:20:51;;;;;;;5.40;4.90;;;22.80;71.60;;;;;;6255672;28;89616;-70
2023/04/21 07:23:53;;;;;;;5.60;5.10;;;22.80;71.60;;;;;;6255155;28;88301;-70
2023/04/21 07:26:56;;;;;;;5.28;4.85;;;22.80;71.60;;;;;;6252621;28;89975;-70
2023/04/21 07:29:58;;;;;;;5.00;4.60;;;22.80;71.70;;;;;;6255393;28;87944;-69
2023/04/21 07:33:00;;;;;;;5.40;4.90;;;22.80;71.70;;;;;;6242269;28;89185;-70
2023/04/21 07:36:02;;;;;;;5.20;4.70;;;22.80;71.70;;;;;;6255002;28;89198;-69
2023/04/21 07:39:04;;;;;;;5.03;4.63;;;22.80;71.70;;;;;;6255967;28;89279;-69
2023/04/21 07:42:08;;;;;;;5.20;4.55;;;22.80;71.70;;;;;;6259328;28;89019;-69
2023/04/21 07:45:11;;;;;;;5.18;4.72;;;22.80;71.80;;;;;;6247450;28;89089;-70
2023/04/21 07:48:13;;;;;;;4.97;4.57;;;22.80;71.70;;;;;;6259834;28;88294;-70
2023/04/21 07:51:16;;;;;;;4.93;4.53;;;22.80;71.80;;;;;;6252632;28;89061;-69
2023/04/21 07:54:18;;;;;;;5.22;4.72;;;22.80;71.80;;;;;;6259180;28;89291;-70
2023/04/21 07:57:22;;;;;;;4.80;4.40;;;22.90;71.80;;;;;;6259022;28;90377;-70
2023/04/21 08:00:24;;;;;;;4.78;4.38;;;22.80;71.80;;;;;;6236376;28;89116;-69
2023/04/21 08:03:26;;;;;;;4.90;4.50;;;22.90;71.80;;;;;;6246465;28;88721;-70
2023/04/21 08:06:28;;;;;;;4.57;4.18;;;22.90;71.90;;;;;;6255654;28;89111;-70
2023/04/21 08:09:30;;;;;;;4.70;4.30;;;22.90;71.90;;;;;;6258563;28;89063;-70
2023/04/21 08:12:33;;;;;;;4.68;4.28;;;22.90;71.90;;;;;;6258322;28;89381;-70
2023/04/21 08:15:35;;;;;;;4.75;4.35;;;22.90;71.80;;;;;;6248526;28;89394;-70
2023/04/21 08:18:37;;;;;;;4.60;4.20;;;22.90;71.80;;;;;;6258514;28;89288;-70
2023/04/21 08:21:39;;;;;;;4.70;4.30;;;22.90;71.80;;;;;;6258151;28;89236;-70
2023/04/21 08:24:41;;;;;;;4.65;4.25;;;22.90;71.80;;;;;;6257623;28;87931;-69
2023/04/21 08:27:47;;;;;;;4.63;4.22;;;22.90;71.90;;;;;;6257548;28;89876;-69
2023/04/21 08:30:49;;;;;;;4.68;4.28;;;23.00;71.90;;;;;;6258537;28;89089;-69
2023/04/21 08:33:51;;;;;;;4.85;4.45;;;22.90;71.90;;;;;;6258459;28;89055;-70
2023/04/21 08:36:53;;;;;;;4.30;3.95;;;22.90;71.90;;;;;;6258894;28;89199;-69
2023/04/21 08:39:55;;;;;;;4.55;4.15;;;22.90;72.00;;;;;;6244407;28;91161;-70
2023/04/21 08:42:59;;;;;;;4.47;4.10;;;22.90;72.00;;;;;;6254378;28;89508;-69
2023/04/21 08:46:05;;;;;;;4.72;4.32;;;22.90;72.00;;;;;;6246985;28;89034;-69
2023/04/21 08:49:10;;;;;;;4.53;4.13;;;22.90;72.20;;;;;;6247551;28;88423;-69
2023/04/21 08:52:13;;;;;;;3.90;3.60;;;22.90;72.20;;;;;;6257307;27;88983;-69
2023/04/21 08:55:16;;;;;;;4.40;4.00;;;22.80;72.10;;;;;;6246431;28;89064;-70
2023/04/21 08:58:21;;;;;;;4.50;4.10;;;22.90;72.20;;;;;;6254260;28;90046;-70
2023/04/21 09:01:23;;;;;;;4.40;4.00;;;22.90;72.20;;;;;;6250954;28;89074;-69
2023/04/21 09:04:25;;;;;;;4.13;3.83;;;22.90;72.20;;;;;;6247781;28;89435;-70
2023/04/21 09:07:32;;;;;;;4.60;4.20;;;22.90;72.30;;;;;;6255886;28;89246;-70
2023/04/21 09:10:34;;;;;;;4.40;4.00;;;22.80;72.20;;;;;;6247651;28;89275;-70
2023/04/21 09:13:38;;;;;;;4.10;3.80;;;22.80;72.20;;;;;;6257468;28;89173;-69
2023/04/21 09:16:41;;;;;;;4.32;3.92;;;22.90;72.30;;;;;;6248846;28;89253;-69
2023/04/21 09:19:43;;;;;;;4.45;4.05;;;22.90;72.20;;;;;;6258363;28;88376;-70
2023/04/21 09:22:45;;;;;;;4.03;3.72;;;22.90;72.30;;;;;;6255681;28;89046;-69
2023/04/21 09:25:47;;;;;;;4.43;4.03;;;22.90;72.20;;;;;;6254365;28;89405;-70
2023/04/21 09:28:52;;;;;;;4.10;3.70;;;22.90;72.20;;;;;;6257540;28;90029;-69
2023/04/21 09:31:54;;;;;;;4.28;3.88;;;22.90;72.20;;;;;;6256514;28;89978;-70
2023/04/21 09:35:00;;;;;;;4.13;3.72;;;22.90;72.20;;;;;;6256579;28;89145;-70
2023/04/21 09:38:04;;;;;;;3.90;3.60;;;22.90;72.20;;;;;;6257079;28;89088;-69
2023/04/21 09:41:06;;;;;;;4.30;3.90;;;22.90;72.30;;;;;;6257046;28;88721;-70
2023/04/21 09:44:09;;;;;;;4.35;3.95;;;22.90;72.30;;;;;;6246059;28;88960;-70
2023/04/21 09:47:13;;;;;;;3.80;3.50;;;23.00;72.30;;;;;;6245958;28;91327;-70
2023/04/21 09:50:15;;;;;;;3.67;3.38;;;22.90;72.30;;;;;;6253131;28;88332;-70
2023/04/21 09:53:20;;;;;;;3.90;3.60;;;22.90;72.30;;;;;;6255790;28;89066;-70
2023/04/21 09:56:25;;;;;;;3.90;3.60;;;22.90;72.30;;;;;;6256374;28;89498;-70
2023/04/21 09:59:32;;;;;;;4.03;3.72;;;22.90;72.30;;;;;;6255709;28;90306;-70
2023/04/21 10:02:35;;;;;;;3.85;3.55;;;22.90;72.30;;;;;;6243017;28;88997;-70
2023/04/21 10:05:38;;;;;;;3.97;3.67;;;23.00;72.40;;;;;;6247644;28;89437;-70
2023/04/21 10:08:41;;;;;;;3.90;3.60;;;22.90;72.40;;;;;;6255186;28;89369;-70
2023/04/21 10:11:43;;;;;;;3.85;3.40;;;22.90;72.30;;;;;;6256391;28;88281;-69
2023/04/21 10:14:50;;;;;;;3.53;3.22;;;23.00;72.40;;;;;;6251277;28;89458;-69
2023/04/21 10:17:52;;;;;;;3.85;3.55;;;23.00;72.40;;;;;;6252304;28;89021;-69
2023/04/21 10:20:55;;;;;;;3.90;3.50;;;23.00;72.40;;;;;;6256515;28;88355;-70
2023/04/21 10:23:58;;;;;;;3.55;3.25;;;23.00;72.40;;;;;;6257270;28;89200;-69
2023/04/21 10:27:00;;;;;;;3.80;3.50;;;23.00;72.40;;;;;;6256188;28;89199;-70
2023/04/21 10:30:18;;;;;;;3.60;3.30;;;23.00;72.30;;;;;;6255815;28;88955;-69
2023/04/21 10:33:24;;;;;;;3.50;3.20;;;23.00;72.40;;;;;;6256231;28;88944;-70
2023/04/21 10:36:26;;;;;;;3.50;3.20;;;23.00;72.40;;;;;;6256144;28;89374;-69
2023/04/21 10:39:30;;;;;;;3.60;3.30;;;23.00;72.40;;;;;;6254834;28;89288;-69
2023/04/21 10:42:36;;;;;;;3.75;3.45;;;23.00;72.50;;;;;;6254274;28;89238;-69
2023/04/21 10:45:40;;;;;;;3.60;3.30;;;23.00;72.50;;;;;;6249763;28;89100;-69
2023/04/21 10:48:49;;;;;;;3.42;3.10;;;23.00;72.50;;;;;;6255165;28;89149;-69
2023/04/21 10:52:08;;;;;;;3.67;3.38;;;23.00;72.50;;;;;;6250796;28;88247;-69
2023/04/21 10:55:11;;;;;;;3.65;3.35;;;23.00;72.50;;;;;;6255320;28;88285;-69
2023/04/21 10:58:16;;;;;;;3.70;3.40;;;23.00;72.60;;;;;;6252984;28;88255;-70
2023/04/21 11:01:19;;;;;;;3.65;3.35;;;23.00;72.60;;;;;;6249816;28;89397;-69
2023/04/21 11:04:22;;;;;;;3.80;3.50;;;23.00;72.60;;;;;;6240372;28;89089;-70
2023/04/21 11:07:25;;;;;;;3.30;3.00;;;23.00;72.70;;;;;;6255556;28;88986;-69
2023/04/21 11:10:27;;;;;;;3.95;3.55;;;23.00;72.60;;;;;;6254440;28;87951;-70
2023/04/21 11:13:32;;;;;;;3.53;3.22;;;23.00;72.70;;;;;;6253558;28;89034;-70
2023/04/21 11:16:36;;;;;;;3.30;3.00;;;23.00;72.60;;;;;;6249584;28;88988;-70
2023/04/21 11:19:38;;;;;;;3.70;3.40;;;23.00;72.70;;;;;;6255708;28;89154;-71
2023/04/21 11:22:40;;;;;;;3.65;3.35;;;23.00;72.70;;;;;;6248522;28;88376;-70
2023/04/21 11:25:46;;;;;;;3.15;2.95;;;23.00;72.70;;;;;;6255838;28;89038;-70
2023/04/21 11:28:49;;;;;;;3.67;3.38;;;23.00;72.60;;;;;;6243430;28;89044;-70
2023/04/21 11:31:52;;;;;;;3.40;3.10;;;23.00;72.70;;;;;;6254987;28;89999;-70
2023/04/21 11:34:54;;;;;;;3.40;3.10;;;23.00;72.70;;;;;;6253845;28;89102;-70
2023/04/21 11:37:57;;;;;;;3.40;3.10;;;23.00;73.50;;;;;;6253577;28;89399;-70
2023/04/21 11:40:59;;;;;;;3.33;3.10;;;23.00;72.70;;;;;;6255740;28;89043;-70
2023/04/21 11:44:01;;;;;;;3.38;3.08;;;23.00;72.70;;;;;;6251564;28;90560;-70
2023/04/21 11:47:15;;;;;;;3.22;3.03;;;23.00;72.70;;;;;;6255113;28;89064;-71
2023/04/21 11:50:31;;;;;;;3.15;2.92;;;23.00;72.70;;;;;;6252244;28;88749;-70
2023/04/21 11:53:33;;;;;;;3.47;3.17;;;23.00;72.70;;;;;;6255102;28;88282;-70
2023/04/21 11:56:36;;;;;;;3.28;3.00;;;23.00;72.70;;;;;;6255375;28;89403;-70
2023/04/21 11:59:38;;;;;;;3.55;3.25;;;23.00;72.70;;;;;;6254167;28;88943;-69
2023/04/21 12:02:43;;;;;;;3.03;2.72;;;23.00;72.70;;;;;;6242896;28;90333;-70
2023/04/21 12:05:45;;;;;;;3.13;2.92;;;23.00;72.70;;;;;;6254705;28;89069;-70
2023/04/21 12:08:47;;;;;;;3.50;3.20;;;23.00;72.70;;;;;;6253816;28;89096;-70
2023/04/21 12:11:50;;;;;;;3.40;3.10;;;23.00;72.70;;;;;;6254950;28;89142;-70
2023/04/21 12:14:53;;;;;;;3.20;3.00;;;23.00;72.70;;;;;;6248717;28;87943;-69
2023/04/21 12:17:56;;;;;;;3.03;2.80;;;23.00;72.70;;;;;;6252914;28;87604;-70
2023/04/21 12:21:02;;;;;;;3.22;3.03;;;23.00;72.70;;;;;;6253132;28;89109;-71
2023/04/21 12:24:04;;;;;;;3.08;2.80;;;23.00;72.70;;;;;;6255227;28;88251;-70
2023/04/21 12:27:07;;;;;;;2.90;2.70;;;23.00;72.70;;;;;;6259159;28;90288;-70
2023/04/21 12:30:10;;;;;;;3.13;2.92;;;23.00;72.70;;;;;;6257801;28;89148;-69
2023/04/21 12:33:13;;;;;;;3.20;2.90;;;23.00;72.70;;;;;;6249217;28;88837;-70
2023/04/21 12:36:16;;;;;;;3.05;2.85;;;23.00;72.70;;;;;;6241295;28;88160;-69
2023/04/21 12:39:18;;;;;;;3.03;2.83;;;23.00;72.70;;;;;;6258289;28;88852;-69
2023/04/21 12:42:20;;;;;;;3.25;3.00;;;23.00;72.60;;;;;;6258413;28;89082;-69
2023/04/21 12:45:22;;;;;;;3.20;3.00;;;23.00;72.60;;;;;;6245787;28;89104;-69
2023/04/21 12:48:26;;;;;;;3.10;2.80;;;23.00;72.60;;;;;;6258092;28;88299;-70
2023/04/21 12:51:28;;;;;;;3.00;2.80;;;23.00;72.50;;;;;;6257374;28;89416;-70
2023/04/21 12:54:30;;;;;;;3.20;2.90;;;23.00;72.60;;;;;;6257058;28;87256;-70
2023/04/21 12:57:32;;;;;;;3.30;3.00;;;23.00;72.70;;;;;;6256753;28;89074;-70
2023/04/21 13:00:34;;;;;;;3.53;2.95;;;23.00;72.60;;;;;;6257583;28;89589;-69
2023/04/21 13:03:38;;;;;;;2.70;2.50;;;23.00;72.70;;;;;;6248007;28;90183;-70
2023/04/21 13:06:40;;;;;;;3.58;2.70;;;23.00;72.70;;;;;;6245907;28;88993;-70
2023/04/21 13:09:42;;;;;;;3.00;2.80;;;23.00;72.70;;;;;;6256634;28;89005;-70
2023/04/21 13:12:44;;;;;;;3.30;3.00;;;23.00;72.70;;;;;;6257761;28;89155;-70
2023/04/21 13:15:46;;;;;;;3.05;2.80;;;23.00;72.70;;;;;;6248993;28;89671;-69
2023/04/21 13:18:49;;;;;;;3.13;2.83;;;22.90;72.70;;;;;;6258040;28;89256;-70
2023/04/21 13:21:51;;;;;;;2.90;2.70;;;22.90;72.70;;;;;;6257306;28;88920;-70
2023/04/21 13:24:53;;;;;;;2.90;2.70;;;22.90;72.60;;;;;;6258966;28;88354;-70
2023/04/21 13:27:55;;;;;;;4.00;2.70;;;22.90;72.70;;;;;;6256808;28;89016;-70
2023/04/21 13:30:57;;;;;;;2.90;2.70;;;22.90;72.70;;;;;;6257041;28;89065;-70
2023/04/21 13:34:01;;;;;;;3.40;2.88;;;22.90;72.80;;;;;;6256892;28;90023;-71
2023/04/21 13:37:04;;;;;;;2.85;2.65;;;22.80;72.70;;;;;;6254664;28;89161;-69
2023/04/21 13:40:09;;;;;;;3.08;2.85;;;22.90;72.80;;;;;;6256560;28;88893;-70
2023/04/21 13:43:11;;;;;;;3.00;2.80;;;22.80;72.80;;;;;;6254665;28;88802;-70
2023/04/21 13:46:13;;;;;;;2.83;2.63;;;22.80;72.80;;;;;;6248466;28;89079;-70
2023/04/21 13:49:16;;;;;;;2.65;2.45;;;22.80;72.70;;;;;;6255090;28;89030;-70
2023/04/21 13:52:19;;;;;;;2.83;2.63;;;22.80;72.70;;;;;;6246214;28;89217;-70
2023/04/21 13:55:21;;;;;;;2.80;2.60;;;22.80;72.70;;;;;;6243182;28;88241;-70
2023/04/21 13:58:23;;;;;;;2.75;2.55;;;22.80;72.70;;;;;;6238561;27;89036;-70
2023/04/21 14:01:25;;;;;;;2.78;2.58;;;22.80;72.70;;;;;;6240595;27;89567;-70
2023/04/21 14:04:28;;;;;;;3.25;2.90;;;22.80;72.90;;;;;;6249340;27;89678;-71
2023/04/21 14:07:31;;;;;;;2.67;2.47;;;22.80;73.10;;;;;;6256867;28;89065;-70
2023/04/21 14:10:33;;;;;;;3.60;2.88;;;22.80;73.20;;;;;;6256660;28;89292;-70
2023/04/21 14:13:35;;;;;;;3.15;2.65;;;22.80;73.10;;;;;;6256036;28;87489;-70
2023/04/21 14:16:37;;;;;;;3.22;2.90;;;22.80;73.10;;;;;;6249171;28;88962;-70
2023/04/21 14:19:40;;;;;;;2.72;2.53;;;22.80;73.20;;;;;;6251895;28;87966;-71
2023/04/21 14:22:42;;;;;;;3.78;2.92;;;22.70;73.10;;;;;;6256029;28;89082;-70
2023/04/21 14:25:44;;;;;;;2.88;2.63;;;22.70;73.20;;;;;;6256858;28;88249;-71
2023/04/21 14:28:46;;;;;;;2.92;2.53;;;22.70;73.30;;;;;;6256425;28;89504;-70
2023/04/21 14:31:48;;;;;;;2.90;2.70;;;22.70;73.30;;;;;;6253415;28;89084;-71
2023/04/21 14:34:52;;;;;;;2.83;2.50;;;22.70;73.30;;;;;;6241902;28;90039;-71
2023/04/21 14:37:54;;;;;;;2.75;2.55;;;22.70;73.30;;;;;;6255722;28;88835;-70
2023/04/21 14:40:56;;;;;;;2.83;2.63;;;22.70;73.40;;;;;;6255904;28;89032;-71
2023/04/21 14:43:59;;;;;;;3.00;2.53;;;22.70;73.30;;;;;;6244821;28;89165;-71
2023/04/21 14:47:01;;;;;;;2.78;2.58;;;22.70;73.30;;;;;;6244443;28;89014;-71
2023/04/21 14:50:05;;;;;;;2.70;2.50;;;22.70;73.30;;;;;;6251613;28;88119;-71
2023/04/21 14:53:08;;;;;;;2.53;2.33;;;22.70;73.30;;;;;;6256752;28;89087;-70
2023/04/21 14:56:10;;;;;;;3.53;2.72;;;22.70;73.30;;;;;;6243296;28;88350;-70
2023/04/21 14:59:12;;;;;;;2.97;2.78;;;22.70;73.40;;;;;;6243041;28;89074;-70
2023/04/21 15:02:14;;;;;;;2.97;2.78;;;22.70;73.30;;;;;;6245457;28;89432;-71
2023/04/21 15:05:18;;;;;;;2.90;2.55;;;22.70;73.30;;;;;;6254419;28;90231;-71
2023/04/21 15:08:20;;;;;;;2.70;2.50;;;22.70;73.30;;;;;;6254829;28;89107;-70
2023/04/21 15:11:22;;;;;;;2.92;2.70;;;22.70;73.30;;;;;;6255449;28;89685;-71
2023/04/21 15:14:24;;;;;;;2.75;2.55;;;22.70;73.30;;;;;;6252153;28;89505;-70
2023/04/21 15:17:26;;;;;;;3.08;2.78;;;22.70;73.30;;;;;;6248562;28;89250;-70
2023/04/21 15:20:30;;;;;;;2.47;2.28;;;22.70;73.30;;;;;;6255770;28;89045;-71
2023/04/21 15:23:32;;;;;;;2.60;2.40;;;22.70;73.30;;;;;;6252567;28;91550;-69
2023/04/21 15:26:34;;;;;;;2.70;2.50;;;22.70;73.30;;;;;;6253565;28;88714;-71
2023/04/21 15:29:36;;;;;;;2.65;2.45;;;22.70;73.30;;;;;;6242662;28;89148;-69
2023/04/21 15:32:38;;;;;;;2.80;2.60;;;22.70;73.20;;;;;;6255209;28;89350;-71
2023/04/21 15:35:41;;;;;;;2.60;2.40;;;22.70;73.30;;;;;;6254996;28;90124;-70
2023/04/21 15:38:44;;;;;;;2.72;2.53;;;22.70;73.20;;;;;;6254758;28;88201;-70
2023/04/21 15:41:48;;;;;;;2.70;2.50;;;22.70;73.20;;;;;;6254184;28;88954;-70
2023/04/21 15:44:50;;;;;;;3.10;2.55;;;22.70;73.20;;;;;;6251068;28;89034;-70
2023/04/21 15:47:52;;;;;;;2.60;2.40;;;22.70;73.20;;;;;;6245776;28;89061;-70
2023/04/21 15:50:56;;;;;;;2.78;2.58;;;22.70;73.20;;;;;;6251414;28;89202;-70
2023/04/21 15:53:59;;;;;;;2.50;2.30;;;22.70;73.20;;;;;;6255754;28;89087;-69